Time;durP1;ratioP1;P1;durP2;ratioP2;P2;SDS_P1;SDS_P2;PMS_P1;PMS_P2;Temp;Humidity;BMP_temperature;BMP_pressure;BME280_temperature;BME280_humidity;BME280_pressure;Samples;Min_cycle;Max_cycle;Signal;HPM_P1;HPM_P2
2022/04/18 00:00:07;;;;;;;2.40;2.10;;;;;;;4.90;70.54;98526.50;5074856;28;20671;-63
2022/04/18 00:02:34;;;;;;;2.77;2.57;;;;;;;4.92;70.42;98519.47;5074879;28;20225;-63
2022/04/18 00:05:02;;;;;;;2.83;2.53;;;;;;;5.01;70.21;98519.06;5074502;28;20222;-63
2022/04/18 00:07:29;;;;;;;3.57;2.90;;;;;;;5.01;70.07;98513.81;5058746;28;20639;-65
2022/04/18 00:09:55;;;;;;;3.50;2.60;;;;;;;4.92;69.72;98511.59;5074557;28;20244;-63
2022/04/18 00:12:21;;;;;;;3.10;2.80;;;;;;;4.75;70.64;98506.19;5074697;28;20220;-63
2022/04/18 00:14:48;;;;;;;3.63;2.60;;;;;;;4.60;72.17;98512.06;5074385;28;20240;-63
2022/04/18 00:17:14;;;;;;;2.80;2.60;;;;;;;4.47;72.71;98505.56;5074187;28;20221;-63
2022/04/18 00:19:41;;;;;;;3.27;2.50;;;;;;;4.36;73.24;98501.69;5074124;28;20212;-63
2022/04/18 00:22:09;;;;;;;4.40;2.83;;;;;;;4.14;75.92;98512.09;5074100;28;20706;-63
2022/04/18 00:24:35;;;;;;;3.13;2.47;;;;;;;4.10;76.47;98505.28;5072445;28;20218;-63
2022/04/18 00:27:02;;;;;;;2.93;2.73;;;;;;;4.09;76.43;98502.75;5073994;28;20226;-62
2022/04/18 00:29:29;;;;;;;3.27;2.77;;;;;;;4.07;76.35;98508.03;5074267;28;20603;-64
2022/04/18 00:31:55;;;;;;;4.43;2.80;;;;;;;4.01;77.01;98502.16;5074222;28;20218;-63
2022/04/18 00:34:22;;;;;;;3.43;2.97;;;;;;;3.99;77.36;98499.63;5074296;28;20213;-64
2022/04/18 00:36:48;;;;;;;4.53;3.40;;;;;;;3.93;76.98;98492.00;5073936;28;20225;-64
2022/04/18 00:39:16;;;;;;;4.33;3.23;;;;;;;3.82;78.24;98494.16;5073902;28;20228;-64
2022/04/18 00:41:43;;;;;;;4.50;3.20;;;;;;;3.75;79.36;98492.69;5073988;28;20245;-64
2022/04/18 00:44:09;;;;;;;4.80;3.20;;;;;;;3.69;80.17;98498.13;5067456;28;20216;-64
2022/04/18 00:46:36;;;;;;;3.67;3.00;;;;;;;3.71;79.86;98495.44;5072185;28;20684;-64
2022/04/18 00:49:02;;;;;;;4.20;3.00;;;;;;;3.72;79.49;98491.94;5071861;28;20235;-63
2022/04/18 00:51:29;;;;;;;3.70;3.20;;;;;;;3.68;79.09;98491.16;5073935;28;20576;-63
2022/04/18 00:53:57;;;;;;;3.20;2.60;;;;;;;3.64;78.52;98489.59;5073898;28;20630;-63
2022/04/18 00:56:25;;;;;;;3.63;3.00;;;;;;;3.55;78.87;98486.47;5073645;28;20215;-63
2022/04/18 00:58:52;;;;;;;5.47;2.90;;;;;;;3.47;78.93;98485.84;5071555;28;20238;-63
2022/04/18 01:01:19;;;;;;;4.37;3.40;;;;;;;3.41;79.55;98471.25;5058810;28;20219;-63
2022/04/18 01:03:47;;;;;;;3.33;3.03;;;;;;;3.29;80.95;98482.16;5058638;28;20651;-63
2022/04/18 01:06:15;;;;;;;3.40;2.80;;;;;;;3.23;81.99;98482.34;5060430;28;20220;-63
2022/04/18 01:08:43;;;;;;;3.97;3.30;;;;;;;3.20;82.98;98479.88;5061361;28;20211;-63
2022/04/18 01:11:10;;;;;;;6.37;3.20;;;;;;;3.24;83.63;98484.06;5058420;28;20218;-64
2022/04/18 01:13:42;;;;;;;3.73;3.23;;;;;;;3.19;84.40;98478.13;5067817;28;20268;-63
2022/04/18 01:16:09;;;;;;;3.80;3.40;;;;;;;3.20;85.04;98479.88;5071684;28;20296;-64
2022/04/18 01:18:36;;;;;;;4.43;3.60;;;;;;;3.21;84.71;98473.72;5073319;28;20264;-64
2022/04/18 01:21:04;;;;;;;4.07;3.50;;;;;;;3.24;84.61;98473.59;5073328;28;20212;-63
2022/04/18 01:23:31;;;;;;;4.53;3.10;;;;;;;3.24;84.78;98468.38;5073012;28;20214;-63
2022/04/18 01:29:01;;;;;;;3.63;3.07;;;;;;;3.25;85.03;98470.09;5062232;28;20317;-63
2022/04/18 01:31:28;;;;;;;4.03;3.20;;;;;;;3.27;85.33;98470.91;5073343;28;20340;-62
2022/04/18 01:33:55;;;;;;;3.87;3.43;;;;;;;3.36;84.64;98467.97;5072904;28;20216;-62
2022/04/18 01:36:23;;;;;;;3.67;3.07;;;;;;;3.23;85.37;98466.69;5073242;28;20212;-63
2022/04/18 01:38:49;;;;;;;4.30;3.13;;;;;;;3.19;85.88;98459.84;5072971;28;20209;-63
2022/04/18 01:41:16;;;;;;;3.63;3.10;;;;;;;3.12;86.62;98458.38;5071485;28;20244;-63
2022/04/18 01:43:42;;;;;;;4.17;3.47;;;;;;;3.10;86.68;98452.34;5073065;28;20226;-65
2022/04/18 01:46:09;;;;;;;3.63;3.33;;;;;;;3.05;87.15;98451.66;5073129;28;20215;-65
2022/04/18 01:48:35;;;;;;;3.67;3.10;;;;;;;3.06;86.68;98448.13;5073216;28;20556;-63
2022/04/18 01:51:02;;;;;;;3.47;3.10;;;;;;;3.14;85.57;98456.56;5073017;28;20242;-63
2022/04/18 01:53:31;;;;;;;3.97;3.57;;;;;;;3.14;84.72;98453.97;5073029;28;20211;-63
2022/04/18 01:55:57;;;;;;;5.53;3.43;;;;;;;3.03;86.33;98458.69;5073000;28;20252;-63
2022/04/18 01:58:24;;;;;;;4.23;3.70;;;;;;;2.96;88.25;98458.94;5072485;28;20589;-65
2022/04/18 02:00:50;;;;;;;4.50;3.20;;;;;;;2.97;88.07;98456.28;5067613;28;20223;-63
2022/04/18 02:03:17;;;;;;;4.13;3.53;;;;;;;3.07;87.25;98455.06;5072618;28;20216;-63
2022/04/18 02:05:44;;;;;;;4.97;4.30;;;;;;;3.00;88.69;98448.34;5072563;28;20223;-64
2022/04/18 02:08:10;;;;;;;6.00;3.70;;;;;;;2.98;89.04;98449.28;5071260;28;20227;-64
2022/04/18 02:10:38;;;;;;;3.70;3.30;;;;;;;3.01;88.92;98444.81;5076220;28;20239;-63
2022/04/18 02:13:05;;;;;;;3.60;3.30;;;;;;;3.02;88.37;98443.94;5076560;28;20219;-63
2022/04/18 02:15:32;;;;;;;5.00;3.40;;;;;;;3.06;88.61;98439.47;5076676;28;20211;-65
2022/04/18 02:17:58;;;;;;;3.70;3.40;;;;;;;3.03;88.54;98437.81;5076858;28;20220;-63
2022/04/18 02:20:25;;;;;;;3.50;3.20;;;;;;;3.02;88.92;98437.84;5076447;28;20216;-62
2022/04/18 02:22:52;;;;;;;3.70;3.40;;;;;;;2.92;89.93;98432.09;5076501;28;20220;-63
2022/04/18 02:25:19;;;;;;;3.83;3.53;;;;;;;2.87;90.12;98433.16;5076618;28;20222;-62
2022/04/18 02:27:47;;;;;;;4.03;3.63;;;;;;;2.84;89.97;98435.88;5076394;28;20223;-62
2022/04/18 02:30:16;;;;;;;4.40;4.00;;;;;;;2.90;90.03;98436.53;5076616;28;20269;-62
2022/04/18 02:32:48;;;;;;;4.33;3.80;;;;;;;2.98;89.99;98428.41;5074946;28;20229;-62
2022/04/18 02:35:15;;;;;;;4.53;3.60;;;;;;;2.96;90.42;98430.22;5076471;28;20216;-63
2022/04/18 02:37:42;;;;;;;3.90;3.50;;;;;;;2.97;90.42;98427.56;5076430;28;20260;-64
2022/04/18 02:40:09;;;;;;;4.77;3.80;;;;;;;3.00;90.16;98424.00;5076254;28;20219;-62
2022/04/18 02:42:36;;;;;;;5.63;3.37;;;;;;;2.92;91.12;98426.00;5076581;28;20236;-63
2022/04/18 02:45:04;;;;;;;4.07;3.67;;;;;;;2.99;90.62;98425.75;5076558;28;20223;-63
2022/04/18 02:47:30;;;;;;;4.27;3.60;;;;;;;2.97;90.80;98426.72;5076649;28;20208;-64
2022/04/18 02:49:57;;;;;;;3.80;3.30;;;;;;;2.94;91.52;98419.00;5076182;28;20238;-64
2022/04/18 02:52:23;;;;;;;3.47;3.17;;;;;;;2.86;91.55;98413.16;5076154;28;20218;-64
2022/04/18 02:54:50;;;;;;;3.77;3.47;;;;;;;2.91;90.62;98412.13;5076095;28;20219;-63
2022/04/18 02:57:16;;;;;;;4.00;3.53;;;;;;;2.89;90.40;98408.69;5076036;28;20586;-64
2022/04/18 02:59:43;;;;;;;3.83;3.43;;;;;;;2.90;90.59;98409.56;5074344;28;20216;-64
2022/04/18 03:02:10;;;;;;;4.80;3.83;;;;;;;2.89;91.41;98413.09;5075943;28;20218;-65
2022/04/18 03:04:37;;;;;;;4.40;4.00;;;;;;;2.80;92.15;98414.25;5075667;28;20223;-64
2022/04/18 03:07:04;;;;;;;4.10;3.63;;;;;;;2.75;93.56;98410.94;5075876;28;20215;-63
2022/04/18 03:09:31;;;;;;;4.20;3.50;;;;;;;2.77;93.74;98414.38;5075876;28;20211;-64
2022/04/18 03:11:58;;;;;;;7.37;3.47;;;;;;;2.79;93.54;98416.91;5076006;28;20211;-63
2022/04/18 03:14:25;;;;;;;4.37;3.80;;;;;;;2.82;92.71;98406.38;5071678;28;20221;-63
2022/04/18 03:16:51;;;;;;;5.00;3.80;;;;;;;2.76;92.23;98407.41;5075384;28;20211;-62
2022/04/18 03:19:19;;;;;;;5.90;4.07;;;;;;;2.66;92.73;98400.81;5075867;28;20220;-63
2022/04/18 03:21:46;;;;;;;5.67;5.17;;;;;;;2.48;94.04;98390.13;5074971;28;20309;-63
2022/04/18 03:24:12;;;;;;;5.07;3.87;;;;;;;2.42;93.90;98399.03;5075152;28;20215;-63
2022/04/18 03:26:39;;;;;;;4.50;3.90;;;;;;;2.33;93.96;98391.47;5074218;28;20225;-63
2022/04/18 03:29:06;;;;;;;4.10;3.73;;;;;;;2.36;92.70;98394.00;5075172;28;20683;-63
2022/04/18 03:31:32;;;;;;;4.40;4.00;;;;;;;2.35;92.18;98392.31;5075423;28;20231;-63
2022/04/18 03:33:59;;;;;;;5.77;3.80;;;;;;;2.46;91.74;98398.00;5075389;28;20216;-64
2022/04/18 03:41:54;;;;;;;4.60;3.87;;;;;;;2.46;91.68;98398.00;5070661;28;20276;-63
2022/04/18 03:44:21;;;;;;;4.20;3.70;;;;;;;2.34;92.69;98395.78;5074819;28;20684;-63
2022/04/18 03:46:47;;;;;;;5.77;4.10;;;;;;;2.23;95.19;98389.22;5075200;28;20248;-63
2022/04/18 03:49:14;;;;;;;5.80;3.87;;;;;;;2.10;96.94;98383.56;5074829;28;20226;-64
2022/04/18 03:51:41;;;;;;;4.67;3.90;;;;;;;2.10;95.78;98378.34;5073342;28;20242;-62
2022/04/18 03:54:08;;;;;;;3.97;3.67;;;;;;;2.03;94.92;98376.81;5075010;28;20215;-63
2022/04/18 03:56:34;;;;;;;3.97;3.57;;;;;;;1.96;94.16;98375.31;5074973;28;20207;-63
2022/04/18 03:59:01;;;;;;;5.57;4.47;;;;;;;1.91;94.34;98377.19;5074858;28;20512;-63
2022/04/18 04:01:27;;;;;;;5.53;4.30;;;;;;;1.91;94.36;98382.41;5074784;28;20238;-63
2022/04/18 04:03:54;;;;;;;5.10;4.23;;;;;;;1.87;94.74;98379.97;5074542;28;20269;-62
2022/04/18 04:06:20;;;;;;;5.97;4.03;;;;;;;1.84;95.24;98380.06;5074694;28;20211;-63
2022/04/18 04:08:48;;;;;;;4.47;3.87;;;;;;;1.83;96.28;98374.00;5074391;28;20224;-63
2022/04/18 04:11:14;;;;;;;4.03;3.63;;;;;;;1.88;96.96;98376.44;5074162;28;20241;-62
2022/04/18 04:13:41;;;;;;;4.13;3.73;;;;;;;1.90;96.89;98388.53;5074316;28;20218;-62
2022/04/18 04:16:07;;;;;;;4.70;3.80;;;;;;;1.95;97.53;98384.03;5074637;28;20576;-63
2022/04/18 04:18:34;;;;;;;4.77;4.13;;;;;;;1.98;97.46;98383.97;5072809;28;20661;-64
2022/04/18 04:21:00;;;;;;;5.33;3.90;;;;;;;2.02;97.07;98385.53;5074391;28;20215;-64
2022/04/18 04:23:27;;;;;;;4.43;4.03;;;;;;;1.98;98.18;98383.09;5074104;28;20211;-64
2022/04/18 04:25:54;;;;;;;4.37;3.90;;;;;;;2.03;97.53;98381.19;5073950;28;20669;-63
2022/04/18 04:28:21;;;;;;;4.40;4.00;;;;;;;1.97;98.08;98374.41;5073565;28;20219;-64
2022/04/18 04:30:47;;;;;;;5.53;4.10;;;;;;;2.04;98.01;98373.34;5072377;28;20242;-63
2022/04/18 04:33:16;;;;;;;4.23;3.83;;;;;;;2.09;97.21;98375.78;5073344;28;20223;-63
2022/04/18 04:35:42;;;;;;;3.83;3.37;;;;;;;2.09;97.44;98366.19;5073924;28;20215;-63
2022/04/18 04:38:09;;;;;;;3.90;3.50;;;;;;;2.12;97.72;98371.34;5073800;28;20218;-62
2022/04/18 04:40:36;;;;;;;4.03;3.63;;;;;;;2.35;96.25;98363.63;5073884;28;20225;-63
2022/04/18 04:43:04;;;;;;;4.83;3.77;;;;;;;2.47;95.16;98363.22;5071412;28;20219;-63
2022/04/18 04:45:32;;;;;;;4.63;4.03;;;;;;;2.62;94.63;98357.47;5064206;28;20211;-63
2022/04/18 04:47:58;;;;;;;5.57;3.60;;;;;;;2.66;94.02;98353.84;5073901;28;20215;-63
2022/04/18 04:50:25;;;;;;;3.87;3.53;;;;;;;2.67;92.66;98363.38;5073818;28;20596;-63
2022/04/18 04:52:51;;;;;;;4.77;3.50;;;;;;;2.65;91.40;98362.59;5073556;28;20223;-63
2022/04/18 04:55:18;;;;;;;4.53;3.63;;;;;;;2.58;90.86;98361.06;5073501;28;20215;-64
2022/04/18 04:57:45;;;;;;;4.17;3.67;;;;;;;2.61;91.02;98360.13;5073784;28;20219;-63
2022/04/18 05:00:14;;;;;;;3.83;3.37;;;;;;;2.62;91.51;98362.69;5073452;28;20673;-63
2022/04/18 05:02:40;;;;;;;5.67;3.63;;;;;;;2.67;91.87;98368.59;5073668;28;20223;-63
2022/04/18 05:05:08;;;;;;;4.70;3.60;;;;;;;2.68;91.55;98366.81;5073448;28;20251;-64
2022/04/18 05:07:34;;;;;;;5.07;3.80;;;;;;;2.82;90.93;98369.84;5073482;28;20227;-63
2022/04/18 05:10:01;;;;;;;4.97;4.10;;;;;;;2.90;90.43;98366.06;5071802;28;20218;-64
2022/04/18 05:12:28;;;;;;;4.70;3.97;;;;;;;2.96;89.89;98362.34;5073236;28;20216;-63
2022/04/18 05:14:55;;;;;;;5.73;4.20;;;;;;;3.00;90.40;98370.00;5073222;28;20703;-63
2022/04/18 05:17:23;;;;;;;5.33;3.93;;;;;;;3.12;90.65;98364.34;5073651;28;20215;-64
2022/04/18 05:19:49;;;;;;;5.10;4.27;;;;;;;3.22;89.89;98376.19;5073432;28;20227;-63
2022/04/18 05:22:15;;;;;;;4.97;4.23;;;;;;;3.26;89.71;98371.69;5073585;28;20587;-63
2022/04/18 05:24:42;;;;;;;4.93;4.13;;;;;;;3.33;90.43;98374.03;5067534;28;20204;-64
2022/04/18 05:27:09;;;;;;;4.80;4.30;;;;;;;3.42;90.70;98371.06;5073386;28;20220;-63
2022/04/18 05:29:35;;;;;;;4.33;3.80;;;;;;;3.49;90.69;98372.53;5073264;28;20262;-64
2022/04/18 05:32:02;;;;;;;5.83;4.30;;;;;;;3.62;90.10;98372.94;5073258;28;20261;-64
2022/04/18 05:34:30;;;;;;;4.87;4.20;;;;;;;3.68;90.48;98376.16;5071982;28;20219;-63
2022/04/18 05:36:56;;;;;;;4.60;3.93;;;;;;;3.79;90.33;98379.22;5072829;28;20227;-64
2022/04/18 05:39:22;;;;;;;4.40;4.00;;;;;;;3.93;89.43;98383.94;5073278;28;20212;-63
2022/04/18 05:41:49;;;;;;;4.27;3.83;;;;;;;4.01;89.02;98381.84;5073439;28;20601;-63
2022/04/18 05:44:15;;;;;;;10.87;4.27;;;;;;;4.09;89.14;98378.03;5072313;28;20226;-63
2022/04/18 05:46:42;;;;;;;3.97;3.50;;;;;;;4.23;89.47;98386.16;5072852;28;20703;-62
2022/04/18 05:49:08;;;;;;;5.43;3.57;;;;;;;4.39;88.86;98383.81;5073187;28;20208;-63
2022/04/18 05:51:38;;;;;;;5.17;3.70;;;;;;;4.55;88.20;98383.13;5072818;28;20241;-63
2022/04/18 05:54:05;;;;;;;4.67;3.50;;;;;;;4.73;86.54;98382.34;5072678;28;20233;-64
2022/04/18 05:56:31;;;;;;;4.13;3.67;;;;;;;4.87;84.57;98389.59;5072802;28;20209;-63
2022/04/18 05:58:58;;;;;;;4.93;3.97;;;;;;;4.99;84.11;98384.72;5072956;28;20219;-63
2022/04/18 06:01:24;;;;;;;5.53;4.83;;;;;;;5.32;82.20;98379.78;5070958;28;20216;-62
2022/04/18 06:03:51;;;;;;;4.10;3.70;;;;;;;6.11;79.75;98381.28;5072658;28;20222;-63
2022/04/18 06:06:17;;;;;;;5.10;4.07;;;;;;;7.14;75.24;98377.84;5072845;28;20226;-62
2022/04/18 06:08:45;;;;;;;3.90;3.40;;;;;;;8.04;70.13;98370.31;5072628;28;20214;-63
2022/04/18 06:11:11;;;;;;;4.00;3.60;;;;;;;8.85;66.74;98362.97;5072663;28;20256;-63
2022/04/18 06:13:38;;;;;;;5.03;4.00;;;;;;;9.46;64.06;98366.28;5072677;28;20222;-63
2022/04/18 06:16:06;;;;;;;3.73;3.43;;;;;;;9.71;63.13;98366.47;5072915;28;20230;-62
2022/04/18 06:18:32;;;;;;;4.00;3.37;;;;;;;9.26;64.37;98364.00;5072779;28;20228;-63
2022/04/18 06:20:59;;;;;;;3.77;3.47;;;;;;;8.46;67.49;98366.13;5072714;28;20218;-62
2022/04/18 06:23:26;;;;;;;3.40;3.10;;;;;;;7.91;69.84;98367.47;5072282;28;20205;-63
2022/04/18 06:25:53;;;;;;;4.10;3.20;;;;;;;7.60;65.74;98361.34;5072789;28;20219;-64
2022/04/18 06:28:20;;;;;;;4.00;3.70;;;;;;;7.37;68.80;98364.34;5071062;28;20219;-64
2022/04/18 06:30:46;;;;;;;4.00;3.10;;;;;;;7.30;68.81;98357.72;5072315;28;20687;-65
2022/04/18 06:33:13;;;;;;;5.17;3.67;;;;;;;7.27;69.69;98357.88;5072334;28;20229;-64
2022/04/18 06:35:41;;;;;;;4.07;3.30;;;;;;;7.29;70.76;98356.03;5072819;28;20214;-63
2022/04/18 06:38:09;;;;;;;3.80;3.40;;;;;;;7.26;69.73;98361.44;5072285;28;20228;-65
2022/04/18 06:40:36;;;;;;;3.73;2.90;;;;;;;7.32;70.31;98361.09;5072211;28;20210;-65
2022/04/18 06:43:03;;;;;;;3.40;3.10;;;;;;;7.36;70.15;98352.97;5072447;28;20302;-64
2022/04/18 06:45:31;;;;;;;5.30;3.20;;;;;;;7.47;69.23;98355.06;5072547;28;20216;-64
2022/04/18 06:47:57;;;;;;;5.07;3.20;;;;;;;7.51;69.36;98351.31;5072145;28;20683;-64
2022/04/18 06:50:24;;;;;;;3.07;2.80;;;;;;;7.62;66.97;98354.22;5072114;28;20215;-65
2022/04/18 06:52:51;;;;;;;4.77;3.07;;;;;;;7.71;68.19;98356.38;5070357;28;20242;-64
2022/04/18 06:55:17;;;;;;;3.20;2.83;;;;;;;7.83;67.31;98356.53;5072465;28;20596;-63
2022/04/18 06:57:43;;;;;;;4.10;3.23;;;;;;;8.01;66.89;98357.28;5075752;28;20575;-63
2022/04/18 07:00:11;;;;;;;4.30;3.23;;;;;;;8.24;63.09;98349.88;5064684;28;20231;-63
2022/04/18 07:02:44;;;;;;;4.83;3.17;;;;;;;8.31;63.07;98355.63;5076044;28;20216;-63
2022/04/18 07:05:11;;;;;;;3.57;3.07;;;;;;;8.34;63.49;98355.47;5075757;28;20216;-63
2022/04/18 07:07:37;;;;;;;5.03;3.00;;;;;;;8.46;64.24;98349.50;5075672;28;20210;-63
2022/04/18 07:10:05;;;;;;;3.40;2.67;;;;;;;8.55;63.39;98349.81;5076123;28;20577;-62
2022/04/18 07:12:31;;;;;;;3.43;3.07;;;;;;;8.64;61.45;98348.44;5075836;28;20278;-62
2022/04/18 07:14:59;;;;;;;5.83;3.20;;;;;;;8.77;60.12;98341.50;5075809;28;20621;-63
2022/04/18 07:17:27;;;;;;;3.57;3.27;;;;;;;8.90;61.90;98345.13;5075546;28;20353;-63
2022/04/18 07:19:53;;;;;;;3.33;3.00;;;;;;;9.10;58.80;98350.03;5074033;28;20227;-62
2022/04/18 07:22:20;;;;;;;4.10;3.30;;;;;;;9.16;59.01;98349.66;5075487;28;20230;-63
2022/04/18 07:24:46;;;;;;;3.70;3.10;;;;;;;9.22;58.33;98350.16;5075527;28;20215;-63
2022/04/18 07:27:12;;;;;;;3.93;3.20;;;;;;;9.44;58.10;98353.22;5075512;28;20223;-62
2022/04/18 07:29:39;;;;;;;4.47;3.50;;;;;;;9.66;57.07;98356.19;5075465;28;20215;-62
2022/04/18 07:32:07;;;;;;;4.03;3.50;;;;;;;9.88;55.72;98356.56;5075132;28;20708;-63
2022/04/18 07:34:35;;;;;;;4.03;2.90;;;;;;;9.89;55.59;98350.34;5075344;28;20615;-63
2022/04/18 07:37:01;;;;;;;3.40;3.07;;;;;;;10.02;56.58;98347.75;5075262;28;20239;-63
2022/04/18 07:39:28;;;;;;;3.73;3.20;;;;;;;10.13;53.45;98355.88;5074932;28;20212;-62
2022/04/18 07:41:54;;;;;;;5.80;3.40;;;;;;;10.19;54.46;98352.84;5075434;28;20244;-63
2022/04/18 07:44:22;;;;;;;4.00;3.30;;;;;;;10.16;53.34;98356.53;5063588;28;20213;-63
2022/04/18 07:46:48;;;;;;;3.33;3.03;;;;;;;10.27;56.28;98350.59;5073942;28;20215;-63
2022/04/18 07:49:15;;;;;;;3.83;3.20;;;;;;;10.33;52.65;98361.59;5075041;28;20219;-63
2022/04/18 07:51:42;;;;;;;6.03;3.43;;;;;;;10.40;53.31;98352.31;5074672;28;20719;-62
2022/04/18 07:54:11;;;;;;;3.63;3.20;;;;;;;10.45;51.46;98354.69;5075042;28;20220;-63
2022/04/18 07:56:37;;;;;;;4.87;3.27;;;;;;;10.36;52.40;98356.13;5075038;28;20216;-62
2022/04/18 07:59:04;;;;;;;5.90;3.30;;;;;;;10.41;51.97;98355.81;5074662;28;20212;-63
2022/04/18 08:01:31;;;;;;;4.77;3.43;;;;;;;10.47;52.61;98353.59;5074525;28;20215;-62
2022/04/18 08:04:00;;;;;;;3.70;3.30;;;;;;;10.49;51.97;98361.44;5074680;28;20227;-62
2022/04/18 08:06:26;;;;;;;4.83;3.40;;;;;;;10.67;52.28;98360.25;5074860;28;20220;-63
2022/04/18 08:08:54;;;;;;;4.13;3.20;;;;;;;10.59;50.38;98359.91;5074708;28;20211;-62
2022/04/18 08:11:21;;;;;;;5.00;3.07;;;;;;;10.61;51.14;98355.34;5073043;28;20247;-63
2022/04/18 08:13:49;;;;;;;4.43;3.30;;;;;;;10.86;51.34;98352.78;5071145;28;20225;-63
2022/04/18 08:16:16;;;;;;;4.30;3.33;;;;;;;10.87;51.05;98349.19;5067130;28;20216;-62
2022/04/18 08:18:45;;;;;;;3.80;2.93;;;;;;;10.96;52.13;98351.22;5074467;28;20219;-63
2022/04/18 08:21:11;;;;;;;4.27;3.57;;;;;;;11.10;50.48;98351.13;5074458;28;20257;-63
2022/04/18 08:23:38;;;;;;;4.37;3.27;;;;;;;11.20;50.88;98354.84;5074489;28;20209;-63
2022/04/18 08:26:05;;;;;;;4.57;3.07;;;;;;;11.21;51.64;98346.81;5074356;28;20211;-63
2022/04/18 08:28:32;;;;;;;3.70;3.23;;;;;;;11.39;50.62;98344.69;5074509;28;20215;-63
2022/04/18 08:31:00;;;;;;;4.03;3.20;;;;;;;11.49;50.96;98343.13;5074143;28;20224;-63
2022/04/18 08:33:29;;;;;;;3.23;2.93;;;;;;;11.58;51.01;98353.94;5074490;28;20213;-63
2022/04/18 08:35:55;;;;;;;9.87;3.60;;;;;;;11.66;49.14;98348.09;5074237;28;20219;-63
2022/04/18 08:38:22;;;;;;;5.03;3.30;;;;;;;11.61;49.16;98345.78;5072083;28;20256;-63
2022/04/18 08:40:50;;;;;;;4.87;3.50;;;;;;;11.66;47.97;98343.66;5074008;28;20252;-63
2022/04/18 08:43:18;;;;;;;4.63;3.10;;;;;;;11.80;48.94;98351.47;5074030;28;20218;-63
2022/04/18 08:45:45;;;;;;;4.80;3.20;;;;;;;11.93;47.68;98351.47;5074096;28;20571;-61
2022/04/18 08:53:41;;;;;;;3.40;3.10;;;;;;;12.52;47.69;98335.56;5073623;28;20217;-61
2022/04/18 08:56:08;;;;;;;3.90;3.10;;;;;;;12.60;47.20;98329.72;5073599;28;20221;-61
2022/04/18 08:58:36;;;;;;;3.57;3.27;;;;;;;12.69;46.61;98331.66;5073668;28;20628;-62
2022/04/18 09:01:04;;;;;;;4.43;3.63;;;;;;;12.89;45.99;98339.81;5062768;28;20269;-61
2022/04/18 09:03:30;;;;;;;4.50;3.17;;;;;;;12.76;44.55;98323.16;5072038;28;20222;-60
2022/04/18 09:06:10;;;;;;;3.40;3.10;;;;;;;12.79;45.62;98327.38;5073352;28;20679;-61
2022/04/18 09:08:44;;;;;;;4.40;2.90;;;;;;;13.02;46.20;98329.19;5073463;28;20272;-61
2022/04/18 09:11:11;;;;;;;4.77;3.40;;;;;;;13.23;45.34;98328.41;5073454;28;20222;-60
2022/04/18 09:13:43;;;;;;;4.00;3.07;;;;;;;13.35;44.43;98321.28;5073319;28;20223;-62
2022/04/18 09:16:16;;;;;;;3.60;3.10;;;;;;;13.32;43.57;98317.06;5057133;28;20250;-62
2022/04/18 09:18:42;;;;;;;3.53;3.07;;;;;;;13.54;45.78;98313.56;5072605;28;20347;-62
2022/04/18 09:21:09;;;;;;;4.07;3.07;;;;;;;13.81;45.80;98320.22;5073365;28;20313;-60
2022/04/18 09:23:36;;;;;;;4.17;2.70;;;;;;;14.00;44.03;98311.66;5072999;28;20211;-60
2022/04/18 09:26:04;;;;;;;3.67;2.57;;;;;;;14.21;43.11;98304.63;5073286;28;20214;-60
2022/04/18 09:28:32;;;;;;;3.67;2.70;;;;;;;14.31;43.69;98308.22;5068988;28;20215;-60
2022/04/18 09:31:05;;;;;;;2.97;2.47;;;;;;;14.54;43.10;98301.88;5065913;28;20211;-61
2022/04/18 09:33:40;;;;;;;3.27;2.63;;;;;;;14.58;41.22;98300.63;5072906;28;20704;-60
2022/04/18 09:36:10;;;;;;;3.10;2.80;;;;;;;14.49;39.05;98296.91;5072405;28;20211;-60
2022/04/18 09:38:38;;;;;;;2.90;2.60;;;;;;;14.34;40.33;98294.66;5063710;28;20226;-61
2022/04/18 09:41:05;;;;;;;5.27;2.93;;;;;;;14.44;40.34;98304.47;5073157;28;20243;-61
2022/04/18 09:43:39;;;;;;;2.83;2.60;;;;;;;14.48;40.29;98300.56;5073256;28;20579;-61
2022/04/18 09:46:09;;;;;;;4.60;3.07;;;;;;;14.69;42.57;98301.47;5073142;28;20215;-61
2022/04/18 09:48:36;;;;;;;4.93;3.00;;;;;;;14.74;42.10;98293.09;5073632;28;20569;-61
2022/04/18 09:51:11;;;;;;;2.90;2.60;;;;;;;14.74;41.46;98290.44;5073724;28;20225;-62
2022/04/18 09:53:38;;;;;;;2.80;2.50;;;;;;;14.78;41.09;98299.84;5059003;28;20243;-60
2022/04/18 09:56:05;;;;;;;2.70;2.40;;;;;;;14.84;40.84;98280.72;5073971;28;20211;-62
2022/04/18 09:58:33;;;;;;;2.73;2.53;;;;;;;14.98;39.65;98283.06;5074488;28;20741;-61
2022/04/18 10:01:04;;;;;;;3.20;2.60;;;;;;;14.89;38.62;98283.81;5073706;28;20219;-61
2022/04/18 10:03:33;;;;;;;3.00;2.70;;;;;;;15.05;38.74;98278.88;5073729;28;20215;-61
2022/04/18 10:06:00;;;;;;;2.63;2.43;;;;;;;15.00;39.98;98284.63;5062990;28;20222;-61
2022/04/18 10:08:28;;;;;;;2.57;2.37;;;;;;;14.95;39.55;98285.97;5072806;28;20261;-61
2022/04/18 10:10:55;;;;;;;2.83;2.60;;;;;;;15.07;40.10;98277.78;5072862;28;20212;-61
2022/04/18 10:13:22;;;;;;;3.30;2.37;;;;;;;14.95;39.17;98267.31;5072623;28;20231;-61
2022/04/18 10:15:51;;;;;;;3.60;3.30;;;;;;;15.06;40.03;98267.25;5074055;28;20217;-61
2022/04/18 10:18:17;;;;;;;3.93;3.10;;;;;;;15.30;41.65;98270.50;5074847;28;20220;-60
2022/04/18 10:20:59;;;;;;;3.10;2.80;;;;;;;15.53;39.15;98264.06;5071966;28;20219;-62
2022/04/18 10:23:43;;;;;;;3.33;2.63;;;;;;;15.53;39.83;98269.41;5073762;28;20210;-60
2022/04/18 10:26:45;;;;;;;3.20;2.70;;;;;;;15.42;39.82;98258.81;5072696;28;20261;-60
2022/04/18 10:29:17;;;;;;;3.47;3.07;;;;;;;15.53;40.34;98256.91;5058716;28;20219;-61
2022/04/18 10:31:45;;;;;;;2.87;2.53;;;;;;;15.56;38.56;98258.47;5074526;28;20246;-61
2022/04/18 10:34:13;;;;;;;3.40;2.93;;;;;;;15.28;36.76;98253.81;5076446;28;20679;-62
2022/04/18 10:36:48;;;;;;;2.97;2.57;;;;;;;15.12;38.12;98248.09;5076442;28;20215;-61
2022/04/18 10:39:14;;;;;;;2.93;2.63;;;;;;;15.07;37.49;98245.84;5076513;28;20234;-60
2022/04/18 10:41:42;;;;;;;2.80;2.50;;;;;;;15.31;39.43;98245.53;5076378;28;20243;-61
2022/04/18 10:44:10;;;;;;;2.93;2.70;;;;;;;15.43;37.58;98242.72;5067717;28;20223;-61
2022/04/18 10:46:38;;;;;;;3.40;2.77;;;;;;;15.46;39.45;98242.44;5069633;28;20211;-60
2022/04/18 10:49:06;;;;;;;3.37;2.50;;;;;;;15.64;39.22;98237.34;5075913;28;20215;-60
2022/04/18 10:51:36;;;;;;;5.87;2.60;;;;;;;15.71;38.54;98241.16;5076190;28;20207;-60
2022/04/18 10:54:09;;;;;;;4.03;2.73;;;;;;;15.87;38.01;98241.47;5076064;28;20296;-61
2022/04/18 10:56:51;;;;;;;4.07;2.70;;;;;;;15.91;37.45;98234.88;5076168;28;20215;-60
2022/04/18 10:59:19;;;;;;;3.17;2.70;;;;;;;15.94;36.46;98235.44;5066535;28;20216;-60
2022/04/18 11:01:46;;;;;;;3.70;3.10;;;;;;;15.76;35.52;98239.75;5075664;28;20224;-60
2022/04/18 11:04:13;;;;;;;3.63;3.00;;;;;;;15.47;36.49;98232.63;5075863;28;20219;-60
2022/04/18 11:06:48;;;;;;;3.10;2.80;;;;;;;15.28;37.22;98221.88;5075565;28;20219;-61
2022/04/18 11:09:19;;;;;;;3.47;2.70;;;;;;;15.47;39.00;98219.31;5075825;28;20207;-61
2022/04/18 11:11:50;;;;;;;4.30;3.10;;;;;;;15.83;38.26;98224.91;5075641;28;20215;-61
2022/04/18 11:14:19;;;;;;;3.47;2.63;;;;;;;15.86;38.22;98219.31;5073938;28;20219;-61
2022/04/18 11:16:52;;;;;;;3.43;3.00;;;;;;;15.80;36.45;98209.19;5064653;28;20699;-61
2022/04/18 11:19:20;;;;;;;3.30;2.80;;;;;;;15.85;37.23;98211.44;5075654;28;20220;-61
2022/04/18 11:22:07;;;;;;;3.60;2.50;;;;;;;15.84;36.99;98210.63;5075347;28;20628;-61
2022/04/18 11:24:36;;;;;;;3.13;2.77;;;;;;;15.90;37.68;98214.53;5075568;28;20215;-60
2022/04/18 11:27:07;;;;;;;4.53;2.53;;;;;;;15.83;37.88;98197.41;5075313;28;20215;-60
2022/04/18 11:29:34;;;;;;;3.10;2.77;;;;;;;16.00;36.80;98204.75;5075194;28;20224;-60
2022/04/18 11:32:01;;;;;;;2.67;2.40;;;;;;;16.17;37.57;98196.91;5075310;28;20222;-60
2022/04/18 11:34:29;;;;;;;3.17;2.40;;;;;;;16.22;36.43;98192.00;5064406;28;20207;-61
2022/04/18 11:36:57;;;;;;;3.80;2.70;;;;;;;16.17;34.23;98192.44;5075483;28;20223;-61
2022/04/18 11:39:24;;;;;;;3.37;3.03;;;;;;;15.77;34.87;98192.63;5073622;28;20218;-61
2022/04/18 11:42:02;;;;;;;2.83;2.47;;;;;;;15.60;36.08;98193.28;5074760;28;20270;-60
2022/04/18 11:44:37;;;;;;;3.50;2.80;;;;;;;15.64;35.66;98186.72;5065738;28;20218;-60
2022/04/18 11:47:08;;;;;;;3.73;2.80;;;;;;;15.79;37.13;98180.88;5075000;28;20206;-61
2022/04/18 11:49:34;;;;;;;2.83;2.37;;;;;;;15.97;36.46;98175.69;5070306;28;20234;-61
2022/04/18 11:52:01;;;;;;;2.90;2.13;;;;;;;16.08;36.10;98174.59;5072323;28;20219;-61
2022/04/18 11:54:27;;;;;;;3.00;2.40;;;;;;;16.28;36.96;98173.59;5060180;28;20235;-62